sensor_id;sensor_type;location;lat;lon;timestamp;P1;durP1;ratioP1;P2;durP2;ratioP2
16699;SDS011;8466;52.286;21.124;2022-12-07T00:01:16;28.97;;;26.07;;
16699;SDS011;8466;52.286;21.124;2022-12-07T00:03:47;30.17;;;26.93;;
16699;SDS011;8466;52.286;21.124;2022-12-07T00:06:21;28.93;;;26.33;;
16699;SDS011;8466;52.286;21.124;2022-12-07T00:08:54;27.27;;;24.40;;
16699;SDS011;8466;52.286;21.124;2022-12-07T00:11:25;27.77;;;25.23;;
16699;SDS011;8466;52.286;21.124;2022-12-07T00:13:55;27.60;;;25.10;;
16699;SDS011;8466;52.286;21.124;2022-12-07T00:16:27;25.47;;;23.10;;
16699;SDS011;8466;52.286;21.124;2022-12-07T00:19:01;26.33;;;23.90;;
16699;SDS011;8466;52.286;21.124;2022-12-07T00:21:33;29.07;;;26.20;;
16699;SDS011;8466;52.286;21.124;2022-12-07T00:24:06;26.47;;;23.87;;
16699;SDS011;8466;52.286;21.124;2022-12-07T00:26:37;29.00;;;26.23;;
16699;SDS011;8466;52.286;21.124;2022-12-07T00:29:09;27.17;;;24.37;;
16699;SDS011;8466;52.286;21.124;2022-12-07T00:31:42;27.27;;;24.37;;
16699;SDS011;8466;52.286;21.124;2022-12-07T00:34:14;24.90;;;22.30;;
16699;SDS011;8466;52.286;21.124;2022-12-07T00:36:47;23.10;;;18.43;;
16699;SDS011;8466;52.286;21.124;2022-12-07T00:39:19;23.63;;;21.17;;
16699;SDS011;8466;52.286;21.124;2022-12-07T00:41:48;35.13;;;31.80;;
16699;SDS011;8466;52.286;21.124;2022-12-07T00:44:19;38.70;;;35.43;;
16699;SDS011;8466;52.286;21.124;2022-12-07T00:46:52;33.63;;;30.67;;
16699;SDS011;8466;52.286;21.124;2022-12-07T00:49:24;32.23;;;29.47;;
16699;SDS011;8466;52.286;21.124;2022-12-07T00:51:56;33.33;;;30.53;;
16699;SDS011;8466;52.286;21.124;2022-12-07T00:54:25;34.70;;;31.83;;
16699;SDS011;8466;52.286;21.124;2022-12-07T00:56:54;33.33;;;30.57;;
16699;SDS011;8466;52.286;21.124;2022-12-07T00:59:25;31.70;;;29.07;;
16699;SDS011;8466;52.286;21.124;2022-12-07T01:01:54;31.80;;;29.07;;
16699;SDS011;8466;52.286;21.124;2022-12-07T01:04:25;30.17;;;27.47;;
16699;SDS011;8466;52.286;21.124;2022-12-07T01:07:02;30.50;;;27.70;;
16699;SDS011;8466;52.286;21.124;2022-12-07T01:09:36;30.17;;;27.40;;
16699;SDS011;8466;52.286;21.124;2022-12-07T01:12:07;27.30;;;24.90;;
16699;SDS011;8466;52.286;21.124;2022-12-07T01:14:36;26.53;;;24.23;;
16699;SDS011;8466;52.286;21.124;2022-12-07T01:17:07;28.00;;;25.47;;
16699;SDS011;8466;52.286;21.124;2022-12-07T01:19:39;28.53;;;26.07;;
16699;SDS011;8466;52.286;21.124;2022-12-07T01:22:11;30.20;;;27.30;;
16699;SDS011;8466;52.286;21.124;2022-12-07T01:24:43;28.60;;;26.00;;
16699;SDS011;8466;52.286;21.124;2022-12-07T01:27:17;29.13;;;26.60;;
16699;SDS011;8466;52.286;21.124;2022-12-07T01:29:47;31.50;;;28.73;;
16699;SDS011;8466;52.286;21.124;2022-12-07T01:32:15;29.73;;;27.10;;
16699;SDS011;8466;52.286;21.124;2022-12-07T01:34:49;28.87;;;26.20;;
16699;SDS011;8466;52.286;21.124;2022-12-07T01:37:19;28.13;;;25.50;;
16699;SDS011;8466;52.286;21.124;2022-12-07T01:39:50;31.40;;;28.47;;
16699;SDS011;8466;52.286;21.124;2022-12-07T01:42:23;32.33;;;29.40;;
16699;SDS011;8466;52.286;21.124;2022-12-07T01:48:05;32.53;;;28.97;;
16699;SDS011;8466;52.286;21.124;2022-12-07T01:50:39;34.70;;;31.30;;
16699;SDS011;8466;52.286;21.124;2022-12-07T01:53:11;35.10;;;30.37;;
16699;SDS011;8466;52.286;21.124;2022-12-07T01:55:46;35.40;;;31.87;;
16699;SDS011;8466;52.286;21.124;2022-12-07T01:58:20;33.40;;;29.87;;
16699;SDS011;8466;52.286;21.124;2022-12-07T02:00:51;33.60;;;30.03;;
16699;SDS011;8466;52.286;21.124;2022-12-07T02:03:22;34.83;;;31.17;;
16699;SDS011;8466;52.286;21.124;2022-12-07T02:05:59;36.83;;;32.97;;
16699;SDS011;8466;52.286;21.124;2022-12-07T02:08:32;35.53;;;30.87;;
16699;SDS011;8466;52.286;21.124;2022-12-07T02:11:04;36.67;;;32.80;;
16699;SDS011;8466;52.286;21.124;2022-12-07T02:13:37;36.37;;;32.50;;
16699;SDS011;8466;52.286;21.124;2022-12-07T02:16:12;36.17;;;32.43;;
16699;SDS011;8466;52.286;21.124;2022-12-07T02:18:53;36.77;;;32.83;;
16699;SDS011;8466;52.286;21.124;2022-12-07T02:21:34;37.13;;;32.23;;
16699;SDS011;8466;52.286;21.124;2022-12-07T02:24:34;37.73;;;33.90;;
16699;SDS011;8466;52.286;21.124;2022-12-07T02:27:36;35.53;;;31.90;;
16699;SDS011;8466;52.286;21.124;2022-12-07T02:30:14;36.57;;;32.97;;
16699;SDS011;8466;52.286;21.124;2022-12-07T02:32:50;32.57;;;29.20;;
16699;SDS011;8466;52.286;21.124;2022-12-07T02:35:30;32.93;;;29.50;;
16699;SDS011;8466;52.286;21.124;2022-12-07T02:38:08;33.63;;;30.40;;
16699;SDS011;8466;52.286;21.124;2022-12-07T02:40:46;32.87;;;29.77;;
16699;SDS011;8466;52.286;21.124;2022-12-07T02:43:23;32.47;;;29.37;;
16699;SDS011;8466;52.286;21.124;2022-12-07T02:46:00;31.10;;;27.93;;
16699;SDS011;8466;52.286;21.124;2022-12-07T02:48:35;31.90;;;29.00;;
16699;SDS011;8466;52.286;21.124;2022-12-07T02:51:07;30.67;;;27.70;;
16699;SDS011;8466;52.286;21.124;2022-12-07T02:53:39;19.77;;;17.67;;
16699;SDS011;8466;52.286;21.124;2022-12-07T02:56:13;19.33;;;16.43;;
16699;SDS011;8466;52.286;21.124;2022-12-07T02:58:54;18.73;;;16.43;;
16699;SDS011;8466;52.286;21.124;2022-12-07T03:01:37;32.40;;;29.57;;
16699;SDS011;8466;52.286;21.124;2022-12-07T03:04:22;26.80;;;24.57;;
16699;SDS011;8466;52.286;21.124;2022-12-07T03:07:04;27.70;;;25.20;;
16699;SDS011;8466;52.286;21.124;2022-12-07T03:09:41;28.07;;;25.67;;
16699;SDS011;8466;52.286;21.124;2022-12-07T03:12:20;29.47;;;26.97;;
16699;SDS011;8466;52.286;21.124;2022-12-07T03:14:59;27.13;;;24.73;;
16699;SDS011;8466;52.286;21.124;2022-12-07T03:17:35;32.63;;;29.83;;
16699;SDS011;8466;52.286;21.124;2022-12-07T03:20:10;29.60;;;27.07;;
16699;SDS011;8466;52.286;21.124;2022-12-07T03:22:43;28.83;;;26.37;;
16699;SDS011;8466;52.286;21.124;2022-12-07T03:25:14;28.40;;;25.97;;
16699;SDS011;8466;52.286;21.124;2022-12-07T03:27:48;27.37;;;25.03;;
16699;SDS011;8466;52.286;21.124;2022-12-07T03:30:24;26.57;;;24.30;;
16699;SDS011;8466;52.286;21.124;2022-12-07T03:33:03;24.47;;;22.23;;
16699;SDS011;8466;52.286;21.124;2022-12-07T03:35:37;24.97;;;22.77;;
16699;SDS011;8466;52.286;21.124;2022-12-07T03:38:11;24.50;;;22.60;;
16699;SDS011;8466;52.286;21.124;2022-12-07T03:40:47;22.67;;;20.80;;
16699;SDS011;8466;52.286;21.124;2022-12-07T03:43:21;23.37;;;21.67;;
16699;SDS011;8466;52.286;21.124;2022-12-07T03:45:56;24.03;;;22.10;;
16699;SDS011;8466;52.286;21.124;2022-12-07T03:48:40;24.10;;;22.13;;
16699;SDS011;8466;52.286;21.124;2022-12-07T03:51:14;23.33;;;21.60;;
16699;SDS011;8466;52.286;21.124;2022-12-07T03:53:50;23.10;;;21.33;;
16699;SDS011;8466;52.286;21.124;2022-12-07T03:56:22;23.33;;;21.37;;
16699;SDS011;8466;52.286;21.124;2022-12-07T03:58:54;22.10;;;20.33;;
16699;SDS011;8466;52.286;21.124;2022-12-07T04:01:24;21.93;;;20.13;;
16699;SDS011;8466;52.286;21.124;2022-12-07T04:03:56;20.10;;;18.43;;
16699;SDS011;8466;52.286;21.124;2022-12-07T04:06:26;21.60;;;19.83;;
16699;SDS011;8466;52.286;21.124;2022-12-07T04:08:56;23.00;;;21.13;;
16699;SDS011;8466;52.286;21.124;2022-12-07T04:11:25;21.50;;;19.70;;
16699;SDS011;8466;52.286;21.124;2022-12-07T04:13:54;20.90;;;19.27;;
16699;SDS011;8466;52.286;21.124;2022-12-07T04:16:41;23.00;;;21.13;;
16699;SDS011;8466;52.286;21.124;2022-12-07T04:19:13;20.23;;;18.63;;
16699;SDS011;8466;52.286;21.124;2022-12-07T04:21:49;24.03;;;22.10;;
16699;SDS011;8466;52.286;21.124;2022-12-07T04:24:18;23.97;;;22.23;;
16699;SDS011;8466;52.286;21.124;2022-12-07T04:26:48;23.17;;;21.37;;
16699;SDS011;8466;52.286;21.124;2022-12-07T04:29:18;24.40;;;22.43;;
16699;SDS011;8466;52.286;21.124;2022-12-07T04:31:48;22.87;;;20.77;;
16699;SDS011;8466;52.286;21.124;2022-12-07T04:34:19;19.60;;;17.97;;
16699;SDS011;8466;52.286;21.124;2022-12-07T04:36:50;19.20;;;17.50;;
16699;SDS011;8466;52.286;21.124;2022-12-07T04:39:26;24.50;;;22.63;;
16699;SDS011;8466;52.286;21.124;2022-12-07T04:41:58;20.00;;;18.37;;
16699;SDS011;8466;52.286;21.124;2022-12-07T04:44:29;19.73;;;18.13;;
16699;SDS011;8466;52.286;21.124;2022-12-07T04:47:00;20.33;;;18.73;;
16699;SDS011;8466;52.286;21.124;2022-12-07T04:49:32;19.97;;;17.97;;
16699;SDS011;8466;52.286;21.124;2022-12-07T04:52:02;19.27;;;17.27;;
16699;SDS011;8466;52.286;21.124;2022-12-07T04:54:36;17.20;;;15.70;;
16699;SDS011;8466;52.286;21.124;2022-12-07T04:57:05;17.80;;;16.07;;
16699;SDS011;8466;52.286;21.124;2022-12-07T04:59:35;19.37;;;17.57;;
16699;SDS011;8466;52.286;21.124;2022-12-07T05:02:11;20.20;;;18.27;;
16699;SDS011;8466;52.286;21.124;2022-12-07T05:04:42;18.47;;;16.73;;
16699;SDS011;8466;52.286;21.124;2022-12-07T05:07:13;18.20;;;16.53;;
16699;SDS011;8466;52.286;21.124;2022-12-07T05:09:43;18.43;;;16.67;;
16699;SDS011;8466;52.286;21.124;2022-12-07T05:12:13;18.33;;;16.70;;
16699;SDS011;8466;52.286;21.124;2022-12-07T05:14:43;18.33;;;16.47;;
16699;SDS011;8466;52.286;21.124;2022-12-07T05:17:15;19.50;;;17.47;;
16699;SDS011;8466;52.286;21.124;2022-12-07T05:19:45;20.33;;;18.53;;
16699;SDS011;8466;52.286;21.124;2022-12-07T05:22:17;18.60;;;16.80;;
16699;SDS011;8466;52.286;21.124;2022-12-07T05:24:47;19.70;;;17.73;;
16699;SDS011;8466;52.286;21.124;2022-12-07T05:27:19;20.77;;;18.80;;
16699;SDS011;8466;52.286;21.124;2022-12-07T05:29:50;21.67;;;19.70;;
16699;SDS011;8466;52.286;21.124;2022-12-07T05:32:21;13.77;;;11.88;;
16699;SDS011;8466;52.286;21.124;2022-12-07T05:34:53;13.27;;;11.93;;
16699;SDS011;8466;52.286;21.124;2022-12-07T05:37:23;19.77;;;18.03;;
16699;SDS011;8466;52.286;21.124;2022-12-07T05:39:53;18.77;;;17.17;;
16699;SDS011;8466;52.286;21.124;2022-12-07T05:42:24;22.00;;;20.17;;
16699;SDS011;8466;52.286;21.124;2022-12-07T05:44:55;22.17;;;20.37;;
16699;SDS011;8466;52.286;21.124;2022-12-07T05:47:25;19.43;;;17.63;;
16699;SDS011;8466;52.286;21.124;2022-12-07T05:49:57;17.80;;;16.30;;
16699;SDS011;8466;52.286;21.124;2022-12-07T05:52:28;19.40;;;17.90;;
16699;SDS011;8466;52.286;21.124;2022-12-07T05:54:57;22.10;;;20.43;;
16699;SDS011;8466;52.286;21.124;2022-12-07T05:57:28;21.80;;;20.27;;
16699;SDS011;8466;52.286;21.124;2022-12-07T05:59:57;20.23;;;18.67;;
16699;SDS011;8466;52.286;21.124;2022-12-07T06:02:28;9.77;;;8.77;;
16699;SDS011;8466;52.286;21.124;2022-12-07T06:04:59;14.77;;;13.53;;
16699;SDS011;8466;52.286;21.124;2022-12-07T06:07:27;21.30;;;19.77;;
16699;SDS011;8466;52.286;21.124;2022-12-07T06:09:58;20.17;;;18.67;;
16699;SDS011;8466;52.286;21.124;2022-12-07T06:12:28;22.63;;;21.17;;
16699;SDS011;8466;52.286;21.124;2022-12-07T06:15:03;20.53;;;18.73;;
16699;SDS011;8466;52.286;21.124;2022-12-07T06:17:33;24.10;;;22.37;;
16699;SDS011;8466;52.286;21.124;2022-12-07T06:20:06;24.40;;;22.47;;
16699;SDS011;8466;52.286;21.124;2022-12-07T06:22:37;28.03;;;25.60;;
16699;SDS011;8466;52.286;21.124;2022-12-07T06:25:08;28.53;;;25.93;;
16699;SDS011;8466;52.286;21.124;2022-12-07T06:27:37;28.07;;;25.70;;
16699;SDS011;8466;52.286;21.124;2022-12-07T06:30:06;24.73;;;22.73;;
16699;SDS011;8466;52.286;21.124;2022-12-07T06:32:37;25.47;;;23.40;;
16699;SDS011;8466;52.286;21.124;2022-12-07T06:35:09;24.30;;;22.20;;
16699;SDS011;8466;52.286;21.124;2022-12-07T06:37:40;26.93;;;24.83;;
16699;SDS011;8466;52.286;21.124;2022-12-07T06:40:15;25.73;;;23.60;;
16699;SDS011;8466;52.286;21.124;2022-12-07T06:42:48;25.90;;;23.87;;
16699;SDS011;8466;52.286;21.124;2022-12-07T06:45:18;25.90;;;23.90;;
16699;SDS011;8466;52.286;21.124;2022-12-07T06:47:48;23.47;;;21.63;;
16699;SDS011;8466;52.286;21.124;2022-12-07T06:50:22;29.57;;;27.67;;
16699;SDS011;8466;52.286;21.124;2022-12-07T07:19:55;19.33;;;17.70;;
16699;SDS011;8466;52.286;21.124;2022-12-07T07:22:23;22.70;;;20.70;;
16699;SDS011;8466;52.286;21.124;2022-12-07T07:24:52;21.43;;;19.73;;
16699;SDS011;8466;52.286;21.124;2022-12-07T07:27:21;24.97;;;23.07;;
16699;SDS011;8466;52.286;21.124;2022-12-07T07:29:50;17.37;;;16.07;;
16699;SDS011;8466;52.286;21.124;2022-12-07T07:32:19;18.03;;;16.57;;
16699;SDS011;8466;52.286;21.124;2022-12-07T07:34:50;21.63;;;19.93;;
16699;SDS011;8466;52.286;21.124;2022-12-07T07:37:19;22.73;;;21.03;;
16699;SDS011;8466;52.286;21.124;2022-12-07T07:39:47;23.67;;;21.87;;
16699;SDS011;8466;52.286;21.124;2022-12-07T07:42:17;19.00;;;17.50;;
16699;SDS011;8466;52.286;21.124;2022-12-07T07:44:46;20.73;;;19.23;;
16699;SDS011;8466;52.286;21.124;2022-12-07T07:47:17;22.30;;;20.60;;
16699;SDS011;8466;52.286;21.124;2022-12-07T07:49:46;23.03;;;21.33;;
16699;SDS011;8466;52.286;21.124;2022-12-07T07:52:18;19.97;;;18.40;;
16699;SDS011;8466;52.286;21.124;2022-12-07T07:54:50;20.63;;;18.90;;
16699;SDS011;8466;52.286;21.124;2022-12-07T07:57:21;25.83;;;24.10;;
16699;SDS011;8466;52.286;21.124;2022-12-07T07:59:50;18.67;;;17.30;;
16699;SDS011;8466;52.286;21.124;2022-12-07T08:02:19;18.80;;;17.40;;
16699;SDS011;8466;52.286;21.124;2022-12-07T08:04:48;17.93;;;16.47;;
16699;SDS011;8466;52.286;21.124;2022-12-07T08:07:19;24.33;;;21.97;;
16699;SDS011;8466;52.286;21.124;2022-12-07T08:09:48;31.20;;;28.10;;
16699;SDS011;8466;52.286;21.124;2022-12-07T08:12:17;25.47;;;23.23;;
16699;SDS011;8466;52.286;21.124;2022-12-07T08:14:48;22.60;;;20.77;;
16699;SDS011;8466;52.286;21.124;2022-12-07T08:17:18;22.30;;;20.30;;
16699;SDS011;8466;52.286;21.124;2022-12-07T08:19:47;23.00;;;21.20;;
16699;SDS011;8466;52.286;21.124;2022-12-07T08:22:23;25.03;;;22.83;;
16699;SDS011;8466;52.286;21.124;2022-12-07T08:24:54;20.80;;;19.27;;
16699;SDS011;8466;52.286;21.124;2022-12-07T08:27:26;22.30;;;20.50;;
16699;SDS011;8466;52.286;21.124;2022-12-07T08:29:58;23.30;;;21.40;;
16699;SDS011;8466;52.286;21.124;2022-12-07T08:32:28;21.60;;;19.90;;
16699;SDS011;8466;52.286;21.124;2022-12-07T08:35:01;27.03;;;24.87;;
16699;SDS011;8466;52.286;21.124;2022-12-07T08:37:33;24.37;;;22.20;;
16699;SDS011;8466;52.286;21.124;2022-12-07T08:40:02;24.40;;;22.20;;
16699;SDS011;8466;52.286;21.124;2022-12-07T08:42:36;27.17;;;24.63;;
16699;SDS011;8466;52.286;21.124;2022-12-07T08:45:14;22.73;;;20.67;;
16699;SDS011;8466;52.286;21.124;2022-12-07T08:47:53;25.07;;;22.83;;
16699;SDS011;8466;52.286;21.124;2022-12-07T08:50:25;25.80;;;23.53;;
16699;SDS011;8466;52.286;21.124;2022-12-07T08:52:56;28.77;;;26.03;;
16699;SDS011;8466;52.286;21.124;2022-12-07T08:55:26;28.17;;;25.43;;
16699;SDS011;8466;52.286;21.124;2022-12-07T08:57:57;25.03;;;22.67;;
16699;SDS011;8466;52.286;21.124;2022-12-07T09:00:26;29.70;;;27.07;;
16699;SDS011;8466;52.286;21.124;2022-12-07T09:02:55;31.90;;;28.97;;
16699;SDS011;8466;52.286;21.124;2022-12-07T09:05:23;34.10;;;30.90;;
16699;SDS011;8466;52.286;21.124;2022-12-07T09:07:54;30.40;;;27.40;;
16699;SDS011;8466;52.286;21.124;2022-12-07T09:10:29;32.13;;;28.87;;
16699;SDS011;8466;52.286;21.124;2022-12-07T09:13:01;30.27;;;27.43;;
16699;SDS011;8466;52.286;21.124;2022-12-07T09:15:31;32.03;;;29.07;;
16699;SDS011;8466;52.286;21.124;2022-12-07T09:18:00;27.93;;;25.30;;
16699;SDS011;8466;52.286;21.124;2022-12-07T09:20:31;35.17;;;32.10;;
16699;SDS011;8466;52.286;21.124;2022-12-07T09:23:05;30.57;;;27.80;;
16699;SDS011;8466;52.286;21.124;2022-12-07T09:25:34;28.63;;;25.87;;
16699;SDS011;8466;52.286;21.124;2022-12-07T09:28:06;32.13;;;29.23;;
16699;SDS011;8466;52.286;21.124;2022-12-07T09:30:38;33.00;;;29.83;;
16699;SDS011;8466;52.286;21.124;2022-12-07T09:33:26;34.67;;;31.50;;
16699;SDS011;8466;52.286;21.124;2022-12-07T09:35:56;30.57;;;28.07;;
16699;SDS011;8466;52.286;21.124;2022-12-07T09:38:29;28.83;;;26.20;;
16699;SDS011;8466;52.286;21.124;2022-12-07T09:41:03;30.37;;;27.63;;
16699;SDS011;8466;52.286;21.124;2022-12-07T09:43:35;31.47;;;28.57;;
16699;SDS011;8466;52.286;21.124;2022-12-07T09:46:08;23.05;;;20.70;;
16699;SDS011;8466;52.286;21.124;2022-12-07T09:48:43;23.87;;;19.03;;
16699;SDS011;8466;52.286;21.124;2022-12-07T09:51:14;21.90;;;19.50;;
16699;SDS011;8466;52.286;21.124;2022-12-07T09:53:53;26.60;;;24.00;;
16699;SDS011;8466;52.286;21.124;2022-12-07T09:56:28;28.23;;;25.50;;
16699;SDS011;8466;52.286;21.124;2022-12-07T09:59:00;28.83;;;26.10;;
16699;SDS011;8466;52.286;21.124;2022-12-07T10:01:30;29.13;;;26.53;;
16699;SDS011;8466;52.286;21.124;2022-12-07T10:04:08;29.33;;;26.70;;
16699;SDS011;8466;52.286;21.124;2022-12-07T10:06:41;31.47;;;28.70;;
16699;SDS011;8466;52.286;21.124;2022-12-07T10:09:12;31.97;;;29.23;;
16699;SDS011;8466;52.286;21.124;2022-12-07T10:12:03;32.77;;;30.07;;
16699;SDS011;8466;52.286;21.124;2022-12-07T10:14:39;20.23;;;17.70;;
16699;SDS011;8466;52.286;21.124;2022-12-07T10:17:36;21.50;;;17.77;;
16699;SDS011;8466;52.286;21.124;2022-12-07T10:20:18;20.07;;;17.90;;
16699;SDS011;8466;52.286;21.124;2022-12-07T10:22:55;35.27;;;32.20;;
16699;SDS011;8466;52.286;21.124;2022-12-07T10:25:28;34.23;;;31.23;;
16699;SDS011;8466;52.286;21.124;2022-12-07T10:28:00;30.63;;;27.33;;
16699;SDS011;8466;52.286;21.124;2022-12-07T10:30:55;34.97;;;32.13;;
16699;SDS011;8466;52.286;21.124;2022-12-07T10:33:33;35.53;;;32.57;;
16699;SDS011;8466;52.286;21.124;2022-12-07T10:36:17;50.30;;;46.30;;
16699;SDS011;8466;52.286;21.124;2022-12-07T10:38:51;43.27;;;39.90;;
16699;SDS011;8466;52.286;21.124;2022-12-07T10:41:22;40.87;;;37.43;;
16699;SDS011;8466;52.286;21.124;2022-12-07T10:43:51;34.07;;;31.23;;
16699;SDS011;8466;52.286;21.124;2022-12-07T10:46:27;29.90;;;27.30;;
16699;SDS011;8466;52.286;21.124;2022-12-07T10:49:23;33.10;;;30.23;;
16699;SDS011;8466;52.286;21.124;2022-12-07T10:52:05;25.50;;;23.23;;
16699;SDS011;8466;52.286;21.124;2022-12-07T10:54:44;29.53;;;26.90;;
16699;SDS011;8466;52.286;21.124;2022-12-07T10:57:31;26.57;;;24.13;;
16699;SDS011;8466;52.286;21.124;2022-12-07T11:00:13;28.00;;;25.40;;
16699;SDS011;8466;52.286;21.124;2022-12-07T11:02:49;30.53;;;27.87;;
16699;SDS011;8466;52.286;21.124;2022-12-07T11:05:36;32.60;;;29.70;;
16699;SDS011;8466;52.286;21.124;2022-12-07T11:08:13;27.97;;;25.37;;
16699;SDS011;8466;52.286;21.124;2022-12-07T11:11:00;16.10;;;14.40;;
16699;SDS011;8466;52.286;21.124;2022-12-07T11:13:37;15.93;;;14.30;;
16699;SDS011;8466;52.286;21.124;2022-12-07T11:16:24;22.23;;;20.27;;
16699;SDS011;8466;52.286;21.124;2022-12-07T11:19:06;27.80;;;25.53;;
16699;SDS011;8466;52.286;21.124;2022-12-07T11:21:55;29.73;;;27.30;;
16699;SDS011;8466;52.286;21.124;2022-12-07T11:24:27;29.23;;;26.60;;
16699;SDS011;8466;52.286;21.124;2022-12-07T11:27:06;14.85;;;12.27;;
16699;SDS011;8466;52.286;21.124;2022-12-07T11:30:01;18.97;;;17.17;;
16699;SDS011;8466;52.286;21.124;2022-12-07T11:32:51;24.37;;;22.17;;
16699;SDS011;8466;52.286;21.124;2022-12-07T11:35:31;32.53;;;29.93;;
16699;SDS011;8466;52.286;21.124;2022-12-07T11:38:08;25.80;;;23.83;;
16699;SDS011;8466;52.286;21.124;2022-12-07T11:40:54;30.10;;;27.63;;
16699;SDS011;8466;52.286;21.124;2022-12-07T11:43:56;31.97;;;29.60;;
16699;SDS011;8466;52.286;21.124;2022-12-07T11:46:33;27.00;;;24.90;;
16699;SDS011;8466;52.286;21.124;2022-12-07T11:49:13;16.80;;;15.00;;
16699;SDS011;8466;52.286;21.124;2022-12-07T11:51:51;18.80;;;16.90;;
16699;SDS011;8466;52.286;21.124;2022-12-07T11:54:26;17.20;;;14.23;;
16699;SDS011;8466;52.286;21.124;2022-12-07T11:56:59;19.47;;;16.67;;
16699;SDS011;8466;52.286;21.124;2022-12-07T11:59:33;21.33;;;19.13;;
16699;SDS011;8466;52.286;21.124;2022-12-07T12:02:11;25.30;;;22.90;;
16699;SDS011;8466;52.286;21.124;2022-12-07T12:04:47;23.13;;;21.10;;
16699;SDS011;8466;52.286;21.124;2022-12-07T12:07:23;28.27;;;25.87;;
16699;SDS011;8466;52.286;21.124;2022-12-07T12:10:16;35.10;;;32.03;;
16699;SDS011;8466;52.286;21.124;2022-12-07T12:16:10;32.63;;;30.10;;
16699;SDS011;8466;52.286;21.124;2022-12-07T12:19:05;26.43;;;24.23;;
16699;SDS011;8466;52.286;21.124;2022-12-07T12:21:46;25.97;;;23.90;;
16699;SDS011;8466;52.286;21.124;2022-12-07T12:24:24;28.23;;;26.07;;
16699;SDS011;8466;52.286;21.124;2022-12-07T12:26:55;24.73;;;22.60;;
16699;SDS011;8466;52.286;21.124;2022-12-07T12:29:31;28.20;;;25.97;;
16699;SDS011;8466;52.286;21.124;2022-12-07T12:32:06;20.87;;;19.10;;
16699;SDS011;8466;52.286;21.124;2022-12-07T12:34:57;24.80;;;22.80;;
16699;SDS011;8466;52.286;21.124;2022-12-07T12:37:44;40.40;;;37.40;;
16699;SDS011;8466;52.286;21.124;2022-12-07T12:49:32;35.33;;;32.53;;
16699;SDS011;8466;52.286;21.124;2022-12-07T12:55:18;42.90;;;39.93;;
16699;SDS011;8466;52.286;21.124;2022-12-07T13:04:14;42.37;;;38.87;;
16699;SDS011;8466;52.286;21.124;2022-12-07T13:06:49;41.43;;;38.03;;
16699;SDS011;8466;52.286;21.124;2022-12-07T13:09:23;49.67;;;45.50;;
16699;SDS011;8466;52.286;21.124;2022-12-07T13:11:58;77.80;;;69.70;;
16699;SDS011;8466;52.286;21.124;2022-12-07T13:14:41;51.20;;;46.47;;
16699;SDS011;8466;52.286;21.124;2022-12-07T13:20:45;47.60;;;43.17;;
16699;SDS011;8466;52.286;21.124;2022-12-07T13:23:26;46.57;;;42.97;;
16699;SDS011;8466;52.286;21.124;2022-12-07T13:26:06;32.40;;;29.87;;
16699;SDS011;8466;52.286;21.124;2022-12-07T13:28:45;35.67;;;32.97;;
16699;SDS011;8466;52.286;21.124;2022-12-07T13:34:01;40.37;;;37.40;;
16699;SDS011;8466;52.286;21.124;2022-12-07T13:36:33;35.97;;;33.23;;
16699;SDS011;8466;52.286;21.124;2022-12-07T13:39:11;37.83;;;35.07;;
16699;SDS011;8466;52.286;21.124;2022-12-07T13:41:49;37.67;;;34.97;;
16699;SDS011;8466;52.286;21.124;2022-12-07T13:44:20;34.83;;;32.33;;
16699;SDS011;8466;52.286;21.124;2022-12-07T13:46:52;30.13;;;27.80;;
16699;SDS011;8466;52.286;21.124;2022-12-07T13:49:26;32.80;;;30.17;;
16699;SDS011;8466;52.286;21.124;2022-12-07T13:52:08;28.67;;;26.47;;
16699;SDS011;8466;52.286;21.124;2022-12-07T13:54:44;30.43;;;27.93;;
16699;SDS011;8466;52.286;21.124;2022-12-07T13:57:15;32.00;;;29.57;;
16699;SDS011;8466;52.286;21.124;2022-12-07T13:59:45;33.07;;;30.47;;
16699;SDS011;8466;52.286;21.124;2022-12-07T14:02:18;35.47;;;32.33;;
16699;SDS011;8466;52.286;21.124;2022-12-07T14:05:06;37.47;;;33.97;;
16699;SDS011;8466;52.286;21.124;2022-12-07T14:07:47;37.67;;;34.33;;
16699;SDS011;8466;52.286;21.124;2022-12-07T14:10:24;36.23;;;33.00;;
16699;SDS011;8466;52.286;21.124;2022-12-07T14:12:54;37.87;;;34.87;;
16699;SDS011;8466;52.286;21.124;2022-12-07T14:15:25;34.83;;;32.20;;
16699;SDS011;8466;52.286;21.124;2022-12-07T14:17:57;32.33;;;29.83;;
16699;SDS011;8466;52.286;21.124;2022-12-07T14:20:30;31.17;;;28.73;;
16699;SDS011;8466;52.286;21.124;2022-12-07T14:23:01;31.00;;;28.53;;
16699;SDS011;8466;52.286;21.124;2022-12-07T14:25:44;30.40;;;28.00;;
16699;SDS011;8466;52.286;21.124;2022-12-07T14:28:26;34.87;;;32.13;;
16699;SDS011;8466;52.286;21.124;2022-12-07T14:30:57;31.20;;;28.73;;
16699;SDS011;8466;52.286;21.124;2022-12-07T14:33:27;33.07;;;30.13;;
16699;SDS011;8466;52.286;21.124;2022-12-07T14:35:56;31.77;;;29.27;;
16699;SDS011;8466;52.286;21.124;2022-12-07T14:38:27;34.30;;;31.53;;
16699;SDS011;8466;52.286;21.124;2022-12-07T14:40:59;33.27;;;30.57;;
16699;SDS011;8466;52.286;21.124;2022-12-07T14:43:41;42.30;;;38.67;;
16699;SDS011;8466;52.286;21.124;2022-12-07T14:46:27;39.60;;;35.90;;
16699;SDS011;8466;52.286;21.124;2022-12-07T14:48:57;42.93;;;38.90;;
16699;SDS011;8466;52.286;21.124;2022-12-07T14:51:46;48.93;;;44.23;;
16699;SDS011;8466;52.286;21.124;2022-12-07T14:54:35;45.70;;;41.53;;
16699;SDS011;8466;52.286;21.124;2022-12-07T14:57:04;42.93;;;39.37;;
16699;SDS011;8466;52.286;21.124;2022-12-07T14:59:33;38.47;;;35.03;;
16699;SDS011;8466;52.286;21.124;2022-12-07T15:02:12;38.90;;;35.30;;
16699;SDS011;8466;52.286;21.124;2022-12-07T15:04:41;37.87;;;34.67;;
16699;SDS011;8466;52.286;21.124;2022-12-07T15:07:12;36.67;;;33.57;;
16699;SDS011;8466;52.286;21.124;2022-12-07T15:09:49;35.97;;;32.73;;
16699;SDS011;8466;52.286;21.124;2022-12-07T15:12:18;39.97;;;36.47;;
16699;SDS011;8466;52.286;21.124;2022-12-07T15:14:47;38.83;;;35.20;;
16699;SDS011;8466;52.286;21.124;2022-12-07T15:17:20;42.60;;;38.70;;
16699;SDS011;8466;52.286;21.124;2022-12-07T15:19:57;39.57;;;35.80;;
16699;SDS011;8466;52.286;21.124;2022-12-07T15:22:26;40.90;;;37.10;;
16699;SDS011;8466;52.286;21.124;2022-12-07T15:25:03;39.73;;;35.83;;
16699;SDS011;8466;52.286;21.124;2022-12-07T15:27:35;42.83;;;38.93;;
16699;SDS011;8466;52.286;21.124;2022-12-07T15:30:05;42.67;;;38.87;;
16699;SDS011;8466;52.286;21.124;2022-12-07T15:32:36;40.03;;;36.73;;
16699;SDS011;8466;52.286;21.124;2022-12-07T15:35:05;34.70;;;31.70;;
16699;SDS011;8466;52.286;21.124;2022-12-07T15:37:35;40.80;;;37.13;;
16699;SDS011;8466;52.286;21.124;2022-12-07T15:40:04;41.93;;;37.83;;
16699;SDS011;8466;52.286;21.124;2022-12-07T15:42:34;39.77;;;36.37;;
16699;SDS011;8466;52.286;21.124;2022-12-07T15:45:04;40.03;;;36.70;;
16699;SDS011;8466;52.286;21.124;2022-12-07T15:47:37;37.33;;;34.13;;
16699;SDS011;8466;52.286;21.124;2022-12-07T15:50:27;29.77;;;27.07;;
16699;SDS011;8466;52.286;21.124;2022-12-07T15:52:56;45.60;;;41.30;;
16699;SDS011;8466;52.286;21.124;2022-12-07T15:55:25;35.60;;;32.50;;
16699;SDS011;8466;52.286;21.124;2022-12-07T15:57:54;31.30;;;28.57;;
16699;SDS011;8466;52.286;21.124;2022-12-07T16:00:24;36.87;;;33.47;;